Startpagina
METAR-TAF:

METAR-TAF

Vliegvelden :

Darwin, Australië

breedte: 12-24S, lengte: 130-52E, hoogte: 31 m

Actueel weer

Dit bericht is 36 minuten geleden gemaakt, om 16:00 UTC
Wind 4 kt uit het zuidzuidoosten
Temperatuur 25°C
Vochtigheid 83%
Druk 1013 hPa
Zicht 10 km of meer
geen wolken onder 1500 m en geen cumulonimbus

METAR: YPDN 301600Z 16004KT CAVOK 25/22 Q1013

Tijdstip: 02:36 (16:36 UTC)

Verwachting

Dit bericht is 5 uur en het 30 minuten geleden gemaakt, om 11:06 UTC
Verwachting geldig van 30 om 12 UTC tot 01 om 18 UTC
Wind 5 kt uit het oostzuidoosten
Zicht 10 km of meer
geen wolken onder 1500 m en geen cumulonimbus
Van 01 om 0400 UTC
Wind 8 kt uit het noordnoordoosten
Zicht 10 km of meer
Weinig wolken op 4000 ft

TAF: YPDN 301106Z 3012/0118 12005KT CAVOK FM010400 02008KT 9999 FEW040

Waarnemingen en weersverwachtingen van meer dan 4000 vliegvelden (METAR en TAF).

De beschikbare stations zijn de gele en rode punten op de kaart.

Ga met uw muis naar het station om de naam te zien.

Klik dan om waarnemingen en weersverwachtingen te zien.

kaart wijzigen: klik op de groene knoppen met een zwart kruis om in te zoomen, op de groene knop met een streepje om uit te zoomen of op de groene pijlen voor aangrenzende kaarten.


METAR-TAF: